createdAt,value
2023-02-06T00:01:39.245Z,16.60
2023-02-06T00:04:07.234Z,19.50
2023-02-06T00:06:35.473Z,19.80
2023-02-06T00:09:04.558Z,19.60
2023-02-06T00:11:33.203Z,18.80
2023-02-06T00:14:01.582Z,22.20
2023-02-06T00:16:32.056Z,15.30
2023-02-06T00:19:01.136Z,15.70
2023-02-06T00:21:29.956Z,14.10
2023-02-06T00:24:00.669Z,15.40
2023-02-06T00:26:29.380Z,18.30
2023-02-06T00:28:57.488Z,17.50
2023-02-06T00:31:25.882Z,17.30
2023-02-06T00:33:53.874Z,13.20
2023-02-06T00:36:21.782Z,16.10
2023-02-06T00:38:49.718Z,13.40
2023-02-06T00:41:17.661Z,14.30
2023-02-06T00:43:45.809Z,15.90
2023-02-06T00:46:13.747Z,16.50
2023-02-06T00:48:41.903Z,12.70
2023-02-06T00:51:09.850Z,15.20
2023-02-06T00:53:38.970Z,17.70
2023-02-06T00:56:07.302Z,13.50
2023-02-06T00:58:35.236Z,14.40
2023-02-06T01:01:04.653Z,13.60
2023-02-06T01:03:32.583Z,17.90
2023-02-06T01:06:00.484Z,15.20
2023-02-06T01:08:28.515Z,13.80
2023-02-06T01:10:56.416Z,15.20
2023-02-06T01:13:24.336Z,19.20
2023-02-06T01:15:52.447Z,14.00
2023-02-06T01:18:23.214Z,13.10
2023-02-06T01:20:51.525Z,15.50
2023-02-06T01:23:19.512Z,13.70
2023-02-06T01:25:47.388Z,16.10
2023-02-06T01:28:17.483Z,18.70
2023-02-06T01:30:45.507Z,14.10
2023-02-06T01:33:13.507Z,12.70
2023-02-06T01:35:41.388Z,16.70
2023-02-06T01:38:09.999Z,12.90
2023-02-06T01:40:38.878Z,13.00
2023-02-06T01:43:17.131Z,14.80
2023-02-06T01:45:47.156Z,15.40
2023-02-06T01:48:20.195Z,14.00
2023-02-06T01:50:54.303Z,14.80
2023-02-06T01:53:24.744Z,14.20
2023-02-06T01:55:56.484Z,15.90
2023-02-06T01:58:30.203Z,14.70
2023-02-06T02:01:00.265Z,17.30
2023-02-06T02:03:32.099Z,15.30
2023-02-06T02:06:07.204Z,16.70
2023-02-06T02:08:45.252Z,13.20
2023-02-06T02:11:23.305Z,15.60
2023-02-06T02:13:53.720Z,15.40
2023-02-06T02:16:45.319Z,15.90
2023-02-06T02:19:59.519Z,15.50
2023-02-06T02:22:49.472Z,12.80
2023-02-06T02:25:36.316Z,17.50
2023-02-06T02:28:22.573Z,15.90
2023-02-06T02:31:20.147Z,11.20
2023-02-06T02:34:11.450Z,14.60
2023-02-06T02:37:14.805Z,18.40
2023-02-06T02:39:43.458Z,15.80
2023-02-06T02:42:29.993Z,11.60
2023-02-06T02:45:13.109Z,16.20
2023-02-06T02:48:14.356Z,15.60
2023-02-06T02:50:43.254Z,13.50
2023-02-06T02:53:13.239Z,14.80
2023-02-06T02:55:41.529Z,16.80
2023-02-06T02:58:13.286Z,17.30
2023-02-06T03:01:00.830Z,18.20
2023-02-06T03:03:31.937Z,15.80
2023-02-06T03:06:21.513Z,13.20
2023-02-06T03:09:01.483Z,14.80
2023-02-06T03:11:30.157Z,17.50
2023-02-06T03:14:06.325Z,16.30
2023-02-06T03:16:42.698Z,15.10
2023-02-06T03:19:21.611Z,13.90
2023-02-06T03:21:50.587Z,12.50
2023-02-06T03:24:26.483Z,17.20
2023-02-06T03:27:01.762Z,16.80
2023-02-06T03:29:33.865Z,15.20
2023-02-06T03:32:28.584Z,16.80
2023-02-06T03:35:02.589Z,14.00
2023-02-06T03:37:31.144Z,13.00
2023-02-06T03:40:01.614Z,12.70
2023-02-06T03:42:30.985Z,15.10
2023-02-06T03:45:11.132Z,27.10
2023-02-06T03:47:40.194Z,116.60
2023-02-06T03:50:10.543Z,129.70
2023-02-06T03:52:43.775Z,86.10
2023-02-06T03:55:19.804Z,57.80
2023-02-06T03:57:59.215Z,33.00
2023-02-06T04:00:29.135Z,19.30
2023-02-06T04:02:58.686Z,21.50
2023-02-06T04:05:28.171Z,20.30
2023-02-06T04:07:56.189Z,18.10
2023-02-06T04:10:26.305Z,16.20
2023-02-06T04:12:54.598Z,17.70
2023-02-06T04:15:23.187Z,17.70
2023-02-06T04:18:00.013Z,18.20
2023-02-06T04:20:29.842Z,17.10
2023-02-06T04:22:58.770Z,19.50
2023-02-06T04:25:26.817Z,17.50
2023-02-06T04:27:54.784Z,18.30
2023-02-06T04:30:22.709Z,17.70
2023-02-06T04:32:51.472Z,17.90
2023-02-06T04:35:19.444Z,20.50
2023-02-06T04:37:47.271Z,22.10
2023-02-06T04:40:15.259Z,16.90
2023-02-06T04:42:43.113Z,24.60
2023-02-06T04:45:11.229Z,19.00
2023-02-06T04:47:39.653Z,19.70
2023-02-06T04:50:08.032Z,18.90
2023-02-06T04:52:36.028Z,22.50
2023-02-06T04:55:04.052Z,24.90
2023-02-06T04:57:32.374Z,24.00
2023-02-06T05:00:00.296Z,21.80
2023-02-06T05:02:28.397Z,22.00
2023-02-06T05:04:56.383Z,21.90
2023-02-06T05:07:24.269Z,17.00
2023-02-06T05:09:52.118Z,18.50
2023-02-06T05:12:20.117Z,20.40
2023-02-06T05:14:48.025Z,20.30
2023-02-06T05:17:15.994Z,31.40
2023-02-06T05:19:43.879Z,23.50
2023-02-06T05:22:11.790Z,26.30
2023-02-06T05:24:39.639Z,26.50
2023-02-06T05:27:07.805Z,23.80
2023-02-06T05:29:35.741Z,26.00
2023-02-06T05:32:03.894Z,27.40
2023-02-06T05:34:31.769Z,27.30
2023-02-06T05:36:59.757Z,25.60
2023-02-06T05:39:27.803Z,25.30
2023-02-06T05:41:55.739Z,21.50
2023-02-06T05:44:23.698Z,24.30
2023-02-06T05:46:51.619Z,26.40
2023-02-06T05:49:19.580Z,27.00
2023-02-06T05:51:47.613Z,27.70
2023-02-06T05:54:15.739Z,29.60
2023-02-06T05:56:44.796Z,23.30
2023-02-06T05:59:12.746Z,23.10
2023-02-06T06:01:40.652Z,18.40
2023-02-06T06:04:08.697Z,22.80
2023-02-06T06:06:36.908Z,23.00
2023-02-06T06:09:05.140Z,23.90
2023-02-06T06:11:33.121Z,24.00
2023-02-06T06:14:01.072Z,23.80
2023-02-06T06:16:28.993Z,28.30
2023-02-06T06:18:56.888Z,22.90
2023-02-06T06:21:24.769Z,26.70
2023-02-06T06:23:52.827Z,22.70
2023-02-06T06:26:20.898Z,22.20
2023-02-06T06:28:48.798Z,26.20
2023-02-06T06:31:16.742Z,25.80
2023-02-06T06:33:45.024Z,27.00
2023-02-06T06:36:14.496Z,23.60
2023-02-06T06:38:42.575Z,23.90
2023-02-06T06:41:10.656Z,22.20
2023-02-06T06:43:38.624Z,27.30
2023-02-06T06:46:06.849Z,24.30
2023-02-06T06:48:34.887Z,24.80
2023-02-06T06:51:02.797Z,25.70
2023-02-06T06:53:30.697Z,26.90
2023-02-06T06:56:05.840Z,35.70
2023-02-06T06:58:34.587Z,34.60
2023-02-06T07:01:02.513Z,49.20
2023-02-06T07:03:30.955Z,101.70
2023-02-06T07:05:58.913Z,217.50
2023-02-06T07:08:26.779Z,105.30
2023-02-06T07:10:54.630Z,41.60
2023-02-06T07:13:22.659Z,25.50
2023-02-06T07:15:50.565Z,25.40
2023-02-06T07:18:18.405Z,25.70
2023-02-06T07:20:46.404Z,26.00
2023-02-06T07:23:14.331Z,24.90
2023-02-06T07:25:42.243Z,26.50
2023-02-06T07:28:10.273Z,36.60
2023-02-06T07:30:38.436Z,33.70
2023-02-06T07:33:06.648Z,40.50
2023-02-06T07:35:34.710Z,67.00
2023-02-06T07:38:02.901Z,69.00
2023-02-06T07:40:44.016Z,83.40
2023-02-06T07:43:13.926Z,95.30
2023-02-06T07:45:42.819Z,103.00
2023-02-06T07:48:11.485Z,104.40
2023-02-06T07:50:39.524Z,88.10
2023-02-06T07:53:07.655Z,89.70
2023-02-06T07:55:37.630Z,82.50
2023-02-06T07:58:05.931Z,82.70
2023-02-06T08:00:33.968Z,71.70
2023-02-06T08:03:01.835Z,66.00
2023-02-06T08:05:29.798Z,57.50
2023-02-06T08:07:58.224Z,50.10
2023-02-06T08:10:26.507Z,56.50
2023-02-06T08:12:54.542Z,53.40
2023-02-06T08:15:22.975Z,71.30
2023-02-06T08:17:50.932Z,65.80
2023-02-06T08:20:18.933Z,54.80
2023-02-06T08:22:46.851Z,70.80
2023-02-06T08:25:14.881Z,75.00
2023-02-06T08:27:42.815Z,64.50
2023-02-06T08:30:12.376Z,65.70
2023-02-06T08:32:40.551Z,68.10
2023-02-06T08:35:10.611Z,62.20
2023-02-06T08:37:38.565Z,54.70
2023-02-06T08:40:07.856Z,57.30
2023-02-06T08:42:35.763Z,47.90
2023-02-06T08:45:03.910Z,44.20
2023-02-06T08:47:31.785Z,44.80
2023-02-06T08:50:01.568Z,44.30
2023-02-06T08:52:31.108Z,48.00
2023-02-06T08:54:58.952Z,49.40
2023-02-06T08:57:26.910Z,42.00
2023-02-06T08:59:54.747Z,41.90
2023-02-06T09:02:22.818Z,43.10
2023-02-06T09:04:51.018Z,39.40
2023-02-06T09:07:18.926Z,46.90
2023-02-06T09:09:47.103Z,43.50
2023-02-06T09:12:15.670Z,47.20
2023-02-06T09:14:43.602Z,42.70
2023-02-06T09:17:11.495Z,44.70
2023-02-06T09:19:39.618Z,39.30
2023-02-06T09:22:07.561Z,30.00
2023-02-06T09:24:35.443Z,22.90
2023-02-06T09:27:03.418Z,16.10
2023-02-06T09:29:34.066Z,14.90
2023-02-06T09:32:02.305Z,14.30
2023-02-06T09:34:30.785Z,13.50
2023-02-06T09:37:01.396Z,12.90
2023-02-06T09:39:30.539Z,11.00
2023-02-06T09:42:11.555Z,15.80
2023-02-06T09:44:47.979Z,13.20
2023-02-06T09:47:27.092Z,14.30
2023-02-06T09:49:59.543Z,21.20
2023-02-06T09:52:33.140Z,22.70
2023-02-06T09:55:15.767Z,20.00
2023-02-06T09:58:06.704Z,16.70
2023-02-06T10:00:37.904Z,11.70
2023-02-06T10:03:27.099Z,10.10
2023-02-06T10:06:29.427Z,9.30
2023-02-06T10:09:03.194Z,8.10
2023-02-06T10:11:50.026Z,9.00
2023-02-06T10:14:18.000Z,10.30
2023-02-06T10:17:08.727Z,8.00
2023-02-06T10:19:49.180Z,8.20
2023-02-06T10:22:24.361Z,8.70
2023-02-06T10:25:11.578Z,8.20
2023-02-06T10:27:42.930Z,9.80
2023-02-06T10:30:20.520Z,7.30
2023-02-06T10:32:57.078Z,8.40
2023-02-06T10:36:03.186Z,7.00
2023-02-06T10:39:06.451Z,7.30
2023-02-06T10:42:10.990Z,6.90
2023-02-06T10:44:51.456Z,6.80
2023-02-06T10:47:37.433Z,5.40
2023-02-06T10:50:25.839Z,7.20
2023-02-06T10:52:57.073Z,7.60
2023-02-06T10:55:31.751Z,8.10
2023-02-06T10:58:13.458Z,6.70
2023-02-06T11:00:44.084Z,5.90
2023-02-06T11:03:20.606Z,6.70
2023-02-06T11:05:48.521Z,8.40
2023-02-06T11:08:20.891Z,7.40
2023-02-06T11:10:49.039Z,7.90
2023-02-06T11:13:48.699Z,8.90
2023-02-06T11:16:24.676Z,8.70
2023-02-06T11:18:55.572Z,8.70
2023-02-06T11:21:41.664Z,10.10
2023-02-06T11:24:12.188Z,10.30
2023-02-06T11:26:51.587Z,10.40
2023-02-06T11:29:32.399Z,8.80
2023-02-06T11:32:07.098Z,6.80
2023-02-06T11:34:54.683Z,7.20
2023-02-06T11:37:51.971Z,6.60
2023-02-06T11:40:20.004Z,7.60
2023-02-06T11:42:51.263Z,6.60
2023-02-06T11:45:32.142Z,6.30
2023-02-06T11:48:01.224Z,5.60
2023-02-06T11:50:30.915Z,5.40
2023-02-06T11:53:08.268Z,4.80
2023-02-06T11:55:38.618Z,7.00
2023-02-06T11:58:09.647Z,5.10
2023-02-06T12:00:40.239Z,5.40
2023-02-06T12:03:27.512Z,6.80
2023-02-06T12:06:11.712Z,5.40
2023-02-06T12:08:51.063Z,5.50
2023-02-06T12:11:49.484Z,4.70
2023-02-06T12:14:23.084Z,5.10
2023-02-06T12:16:52.645Z,5.60
2023-02-06T12:19:32.297Z,4.70
2023-02-06T12:22:12.463Z,6.00
2023-02-06T12:24:48.307Z,6.80
2023-02-06T12:27:38.893Z,7.90
2023-02-06T12:30:29.356Z,7.90
2023-02-06T12:33:07.296Z,6.50
2023-02-06T12:35:42.714Z,5.70
2023-02-06T12:38:19.120Z,6.90
2023-02-06T12:40:51.115Z,6.60
2023-02-06T12:43:20.149Z,6.90
2023-02-06T12:45:50.711Z,7.10
2023-02-06T12:48:21.857Z,6.10
2023-02-06T12:51:12.830Z,7.10
2023-02-06T12:53:49.172Z,6.50
2023-02-06T12:56:45.592Z,7.60
2023-02-06T12:59:22.263Z,9.00
2023-02-06T13:01:57.255Z,7.10
2023-02-06T13:04:30.431Z,7.80
2023-02-06T13:07:09.422Z,8.50
2023-02-06T13:09:48.221Z,8.60
2023-02-06T13:12:21.992Z,8.00
2023-02-06T13:15:03.446Z,8.90
2023-02-06T13:17:35.806Z,8.60
2023-02-06T13:20:15.764Z,10.30
2023-02-06T13:22:45.416Z,12.40
2023-02-06T13:25:31.909Z,11.00
2023-02-06T13:28:02.147Z,12.30
2023-02-06T13:30:30.145Z,10.00
2023-02-06T13:33:11.010Z,10.90
2023-02-06T13:35:56.380Z,10.10
2023-02-06T13:38:24.318Z,12.80
2023-02-06T13:41:14.184Z,13.40
2023-02-06T13:43:55.779Z,13.50
2023-02-06T13:47:06.032Z,12.30
2023-02-06T13:50:05.022Z,12.20
2023-02-06T13:52:54.400Z,12.40
2023-02-06T13:56:00.784Z,13.80
2023-02-06T13:58:58.004Z,13.20
2023-02-06T14:01:30.114Z,14.40
2023-02-06T14:03:59.004Z,13.70
2023-02-06T14:06:39.614Z,18.50
2023-02-06T14:09:48.744Z,16.60
2023-02-06T14:12:53.536Z,17.30
2023-02-06T14:15:39.303Z,16.30
2023-02-06T14:18:13.662Z,15.50
2023-02-06T14:20:51.945Z,13.70
2023-02-06T14:23:32.007Z,16.10
2023-02-06T14:26:08.351Z,15.70
2023-02-06T14:29:05.011Z,18.40
2023-02-06T14:32:10.624Z,16.90
2023-02-06T14:35:03.401Z,15.90
2023-02-06T14:37:44.992Z,15.80
2023-02-06T14:40:27.338Z,15.40
2023-02-06T14:43:02.599Z,17.20
2023-02-06T14:45:41.768Z,13.80
2023-02-06T14:48:23.861Z,16.10
2023-02-06T14:50:56.611Z,17.50
2023-02-06T14:53:30.273Z,15.60
2023-02-06T14:56:17.564Z,17.30
2023-02-06T14:58:46.330Z,18.70
2023-02-06T15:01:17.373Z,15.90
2023-02-06T15:03:48.406Z,20.00
2023-02-06T15:06:31.239Z,19.90
2023-02-06T15:08:59.763Z,18.40
2023-02-06T15:11:30.388Z,18.70
2023-02-06T15:14:02.257Z,19.20
2023-02-06T15:16:30.694Z,18.80
2023-02-06T15:19:24.874Z,18.40
2023-02-06T15:22:01.900Z,27.10
2023-02-06T15:24:56.554Z,25.60
2023-02-06T15:27:30.551Z,29.30
2023-02-06T15:29:59.661Z,28.80
2023-02-06T15:32:38.093Z,31.80
2023-02-06T15:35:40.448Z,36.00
2023-02-06T15:38:15.570Z,48.20
2023-02-06T15:40:49.249Z,44.00
2023-02-06T15:43:20.217Z,44.30
2023-02-06T15:45:50.636Z,38.30
2023-02-06T15:48:38.475Z,31.90
2023-02-06T15:51:21.602Z,40.10
2023-02-06T15:53:51.725Z,45.80
2023-02-06T15:56:30.194Z,47.70
2023-02-06T15:59:04.402Z,49.90
2023-02-06T16:01:37.266Z,60.80
2023-02-06T16:04:32.109Z,112.90
2023-02-06T16:07:27.302Z,247.30
2023-02-06T16:10:04.802Z,303.70
2023-02-06T16:12:35.794Z,259.50
2023-02-06T16:15:21.173Z,249.80
2023-02-06T16:17:49.197Z,222.00
2023-02-06T16:20:29.334Z,120.30
2023-02-06T16:23:17.802Z,420.30
2023-02-06T16:26:06.093Z,174.50
2023-02-06T16:28:49.675Z,118.90
2023-02-06T16:33:49.462Z,49.60
2023-02-06T16:36:19.245Z,75.30
2023-02-06T16:38:54.224Z,48.70
2023-02-06T16:41:34.546Z,43.80
2023-02-06T16:44:04.818Z,47.90
2023-02-06T16:46:32.928Z,51.60
2023-02-06T16:49:01.211Z,47.70
2023-02-06T16:51:31.968Z,40.90
2023-02-06T16:54:01.998Z,36.60
2023-02-06T16:56:31.396Z,40.10
2023-02-06T16:58:59.422Z,46.40
2023-02-06T17:04:28.943Z,34.30
2023-02-06T17:06:57.446Z,43.90
2023-02-06T17:09:25.600Z,42.80
2023-02-06T17:11:54.171Z,43.30
2023-02-06T17:14:23.247Z,39.10
2023-02-06T17:16:51.263Z,34.80
2023-02-06T17:19:19.629Z,31.80
2023-02-06T17:24:57.180Z,34.70
2023-02-06T17:27:25.484Z,32.80
2023-02-06T17:29:53.587Z,29.60
2023-02-06T17:32:22.218Z,25.90
2023-02-06T17:34:52.500Z,25.50
2023-02-06T17:37:22.266Z,24.00
2023-02-06T17:39:52.180Z,29.70
2023-02-06T17:42:21.278Z,32.90
2023-02-06T17:44:49.489Z,29.30
2023-02-06T17:47:17.852Z,30.20
2023-02-06T17:49:45.907Z,29.70
2023-02-06T17:52:14.139Z,30.00
2023-02-06T17:54:42.834Z,31.70
2023-02-06T17:57:11.606Z,29.70
2023-02-06T17:59:39.828Z,31.20
2023-02-06T18:02:13.574Z,32.60
2023-02-06T18:04:42.038Z,31.70
2023-02-06T18:07:10.270Z,29.80
2023-02-06T18:09:39.576Z,29.60
2023-02-06T18:12:09.124Z,31.30
2023-02-06T18:14:37.271Z,36.70
2023-02-06T18:17:05.681Z,35.10
2023-02-06T18:19:34.117Z,33.60
2023-02-06T18:22:02.105Z,35.70
2023-02-06T18:24:30.201Z,33.70
2023-02-06T18:26:58.372Z,27.70
2023-02-06T18:29:28.127Z,31.10
2023-02-06T18:32:01.057Z,31.70
2023-02-06T18:37:37.951Z,33.10
2023-02-06T18:40:06.415Z,29.70
2023-02-06T18:42:34.416Z,32.60
2023-02-06T18:45:04.231Z,34.20
2023-02-06T18:47:32.553Z,33.10
2023-02-06T18:50:00.588Z,39.20
2023-02-06T18:52:29.263Z,67.40
2023-02-06T18:54:57.351Z,65.00
2023-02-06T18:57:25.627Z,55.70
2023-02-06T18:59:53.846Z,79.10
2023-02-06T19:02:21.907Z,66.10
2023-02-06T19:04:49.886Z,38.60
2023-02-06T19:07:18.388Z,40.20
2023-02-06T19:09:48.048Z,36.60
2023-02-06T19:12:16.308Z,33.60
2023-02-06T19:14:44.658Z,30.90
2023-02-06T19:17:12.924Z,23.80
2023-02-06T19:19:40.924Z,27.00
2023-02-06T19:22:09.162Z,27.60
2023-02-06T19:24:37.545Z,27.00
2023-02-06T19:27:05.630Z,33.40
2023-02-06T19:34:56.493Z,45.00
2023-02-06T19:37:25.127Z,82.40
2023-02-06T19:39:54.093Z,66.70
2023-02-06T19:42:22.043Z,66.50
2023-02-06T19:44:54.336Z,64.80
2023-02-06T19:47:24.225Z,66.00
2023-02-06T19:49:53.083Z,70.00
2023-02-06T19:52:21.313Z,208.80
2023-02-06T19:54:49.361Z,307.60
2023-02-06T19:57:17.665Z,229.90
2023-02-06T19:59:45.808Z,128.90
2023-02-06T20:02:16.869Z,122.90
2023-02-06T20:04:44.993Z,70.70
2023-02-06T20:07:13.403Z,57.60
2023-02-06T20:09:41.495Z,58.30
2023-02-06T20:12:11.235Z,60.50
2023-02-06T20:14:39.407Z,57.90
2023-02-06T20:17:08.598Z,49.90
2023-02-06T20:19:36.864Z,80.90
2023-02-06T20:22:05.226Z,125.10
2023-02-06T20:24:34.085Z,131.30
2023-02-06T20:27:03.993Z,128.50
2023-02-06T20:29:36.017Z,118.00
2023-02-06T20:32:05.572Z,108.90
2023-02-06T20:34:34.996Z,134.70
2023-02-06T20:37:04.527Z,208.50
2023-02-06T20:39:33.811Z,248.10
2023-02-06T20:42:02.110Z,295.20
2023-02-06T20:44:31.085Z,333.70
2023-02-06T20:46:59.382Z,392.10
2023-02-06T20:49:28.878Z,358.70
2023-02-06T20:51:57.246Z,286.50
2023-02-06T20:54:26.003Z,254.40
2023-02-06T20:56:54.235Z,180.20
2023-02-06T20:59:22.882Z,191.70
2023-02-06T21:01:51.390Z,206.20
2023-02-06T21:04:20.193Z,156.50
2023-02-06T21:06:48.658Z,179.10
2023-02-06T21:09:17.853Z,156.40
2023-02-06T21:11:48.649Z,126.40
2023-02-06T21:14:18.308Z,118.10
2023-02-06T21:16:47.125Z,126.30
2023-02-06T21:19:19.488Z,149.40
2023-02-06T21:21:48.292Z,159.40
2023-02-06T21:24:17.336Z,156.60
2023-02-06T21:26:45.378Z,156.60
2023-02-06T21:29:14.790Z,132.80
2023-02-06T21:31:43.588Z,129.80
2023-02-06T21:34:20.755Z,105.30
2023-02-06T21:36:49.134Z,108.20
2023-02-06T21:39:23.038Z,104.10
2023-02-06T21:41:51.006Z,109.10
2023-02-06T21:44:19.793Z,107.90
2023-02-06T21:46:47.648Z,103.00
2023-02-06T21:49:15.628Z,93.60
2023-02-06T21:51:43.557Z,93.10
2023-02-06T21:54:11.494Z,89.00
2023-02-06T21:56:39.499Z,102.40
2023-02-06T21:59:09.507Z,99.90
2023-02-06T22:01:37.817Z,107.20
2023-02-06T22:04:07.125Z,88.30
2023-02-06T22:06:35.216Z,99.70
2023-02-06T22:09:05.571Z,107.10
2023-02-06T22:11:36.415Z,128.40
2023-02-06T22:14:11.698Z,148.80
2023-02-06T22:16:40.347Z,171.60
2023-02-06T22:19:09.794Z,178.20
2023-02-06T22:21:37.705Z,172.50
2023-02-06T22:24:07.293Z,156.50
2023-02-06T22:26:36.920Z,136.80
2023-02-06T22:29:11.676Z,135.80
2023-02-06T22:31:40.974Z,152.50
2023-02-06T22:34:20.829Z,188.30
2023-02-06T22:36:49.595Z,231.00
2023-02-06T22:39:17.903Z,210.70
2023-02-06T22:41:46.612Z,206.20
2023-02-06T22:44:16.256Z,189.80
2023-02-06T22:46:50.398Z,173.70
2023-02-06T22:49:20.134Z,181.00
2023-02-06T22:51:48.091Z,188.40
2023-02-06T22:54:16.162Z,170.60
2023-02-06T22:56:44.936Z,172.00
2023-02-06T22:59:21.725Z,188.60
2023-02-06T23:01:52.564Z,225.40
2023-02-06T23:04:23.801Z,218.10
2023-02-06T23:06:52.912Z,240.60
2023-02-06T23:09:24.137Z,254.20
2023-02-06T23:11:53.075Z,267.00
2023-02-06T23:14:21.220Z,271.40
2023-02-06T23:16:49.480Z,264.20
2023-02-06T23:19:19.420Z,273.80
2023-02-06T23:21:49.571Z,260.40
2023-02-06T23:24:18.847Z,257.40
2023-02-06T23:26:49.237Z,212.70
2023-02-06T23:29:18.877Z,225.00
2023-02-06T23:31:47.983Z,207.10
2023-02-06T23:34:17.297Z,215.60
2023-02-06T23:36:46.490Z,238.00
2023-02-06T23:39:15.207Z,244.00
2023-02-06T23:41:43.146Z,254.10
2023-02-06T23:44:11.221Z,265.70
2023-02-06T23:46:40.434Z,294.30
2023-02-06T23:49:08.861Z,288.50
2023-02-06T23:51:37.393Z,277.50
2023-02-06T23:54:07.027Z,273.90
2023-02-06T23:56:35.546Z,268.30
2023-02-06T23:59:05.123Z,240.60
